Abraham, West Virginia
Current Conditions -  °F | °C
As of 1:51 PM on Tuesday 21 Oct 2014 (Local Time) from KBKW Reporting Station
Overcast Overcast  
Wind Chill: 51°   Ceiling: 6000
Heat Index: 51°   Visibility: 10mi
Dew Point: 41°   Wind: 14mph
Humidity: 68%   Direction: 290°WNW
Pressure: 29.94"   Gusts: 23mph
Location:  37.6906°N, 81.1704°W
Report Text: KBKW 211751Z AUTO 29012G20KT 10SM FEW022 SCT041 OVC060 11/05 A2994 RMK AO2 SLP136 60001 T01060050 10117 20089 50000 TSNO
Loading
Personal Weather Stations






























Interactive Weather Map
Tropical Storm Tracking
New forecast layout! Learn more

10-Day Weather Forecast

Advertisements
Track Severe Weather on mobile